createdAt,value
2023-10-16T00:01:33.250Z,10.20
2023-10-16T00:04:00.483Z,10.10
2023-10-16T00:06:27.715Z,10.10
2023-10-16T00:08:55.041Z,10.10
2023-10-16T00:11:27.122Z,10.10
2023-10-16T00:13:58.103Z,10.10
2023-10-16T00:16:25.416Z,10.10
2023-10-16T00:18:54.637Z,10.00
2023-10-16T00:21:22.173Z,10.00
2023-10-16T00:23:49.054Z,10.00
2023-10-16T00:26:22.490Z,10.00
2023-10-16T00:28:55.791Z,10.00
2023-10-16T00:31:22.720Z,9.90
2023-10-16T00:33:51.983Z,9.90
2023-10-16T00:36:19.029Z,10.00
2023-10-16T00:38:52.896Z,9.90
2023-10-16T00:41:25.166Z,9.90
2023-10-16T00:43:52.834Z,9.90
2023-10-16T00:46:39.710Z,9.90
2023-10-16T00:49:07.780Z,9.90
2023-10-16T00:51:40.668Z,9.80
2023-10-16T00:54:28.413Z,9.80
2023-10-16T00:57:01.112Z,9.80
2023-10-16T00:59:29.617Z,9.80
2023-10-16T01:02:25.857Z,9.70
2023-10-16T01:04:53.733Z,9.70
2023-10-16T01:07:21.101Z,9.70
2023-10-16T01:09:48.647Z,9.70
2023-10-16T01:12:16.362Z,9.70
2023-10-16T01:14:43.312Z,9.60
2023-10-16T01:17:10.668Z,9.50
2023-10-16T01:19:38.227Z,9.50
2023-10-16T01:22:05.626Z,9.50
2023-10-16T01:24:32.403Z,9.50
2023-10-16T01:27:07.739Z,9.50
2023-10-16T01:29:38.546Z,9.40
2023-10-16T01:32:05.893Z,9.40
2023-10-16T01:34:36.003Z,9.40
2023-10-16T01:37:10.405Z,9.30
2023-10-16T01:39:49.868Z,9.20
2023-10-16T01:42:19.630Z,9.20
2023-10-16T01:44:47.792Z,9.20
2023-10-16T01:47:16.500Z,9.20
2023-10-16T01:49:44.412Z,9.10
2023-10-16T01:52:13.157Z,9.10
2023-10-16T01:54:44.041Z,9.10
2023-10-16T01:57:13.957Z,9.10
2023-10-16T01:59:46.088Z,9.10
2023-10-16T02:02:14.632Z,9.10
2023-10-16T02:04:42.412Z,9.10
2023-10-16T02:07:13.385Z,9.00
2023-10-16T02:09:41.002Z,9.00
2023-10-16T02:12:15.671Z,9.00
2023-10-16T02:14:43.598Z,9.00
2023-10-16T02:17:37.033Z,8.90
2023-10-16T02:20:12.345Z,8.90
2023-10-16T02:22:41.394Z,8.90
2023-10-16T02:25:18.285Z,8.90
2023-10-16T02:27:45.194Z,8.90
2023-10-16T02:30:24.774Z,8.80
2023-10-16T02:32:54.709Z,8.80
2023-10-16T02:35:22.586Z,8.80
2023-10-16T02:37:55.000Z,8.80
2023-10-16T02:40:21.982Z,8.80
2023-10-16T02:42:53.478Z,8.70
2023-10-16T02:45:26.153Z,8.70
2023-10-16T02:47:54.390Z,8.70
2023-10-16T02:50:21.868Z,8.70
2023-10-16T02:52:51.655Z,8.70
2023-10-16T02:55:19.595Z,8.60
2023-10-16T02:57:46.503Z,8.60
2023-10-16T03:00:21.671Z,8.60
2023-10-16T03:02:48.971Z,8.60
2023-10-16T03:05:23.251Z,8.60
2023-10-16T03:07:51.188Z,8.60
2023-10-16T03:10:18.348Z,8.50
2023-10-16T03:12:45.836Z,8.50
2023-10-16T03:15:22.038Z,8.50
2023-10-16T03:17:52.190Z,8.40
2023-10-16T03:20:23.871Z,8.40
2023-10-16T03:22:52.037Z,8.40
2023-10-16T03:25:37.664Z,8.40
2023-10-16T03:28:06.977Z,8.30
2023-10-16T03:30:34.149Z,8.30
2023-10-16T03:33:02.117Z,8.30
2023-10-16T03:35:31.208Z,8.30
2023-10-16T03:37:58.812Z,8.30
2023-10-16T03:40:29.108Z,8.20
2023-10-16T03:42:56.537Z,8.20
2023-10-16T03:45:23.847Z,8.20
2023-10-16T03:47:58.557Z,8.20
2023-10-16T03:50:27.393Z,8.20
2023-10-16T03:52:56.079Z,8.10
2023-10-16T03:55:27.038Z,8.10
2023-10-16T03:57:54.350Z,8.10
2023-10-16T04:00:27.517Z,8.10
2023-10-16T04:02:56.953Z,8.10
2023-10-16T04:05:34.982Z,8.00
2023-10-16T04:08:02.488Z,8.00
2023-10-16T04:10:30.121Z,8.00
2023-10-16T04:12:58.533Z,8.00
2023-10-16T04:15:44.214Z,8.00
2023-10-16T04:18:27.032Z,7.90
2023-10-16T04:21:09.821Z,7.90
2023-10-16T04:23:57.105Z,7.90
2023-10-16T04:26:28.977Z,7.90
2023-10-16T04:29:12.716Z,8.30
2023-10-16T04:31:46.498Z,7.80
2023-10-16T04:34:28.949Z,7.80
2023-10-16T04:37:16.745Z,7.80
2023-10-16T04:39:56.633Z,7.80
2023-10-16T04:42:46.010Z,7.80
2023-10-16T04:45:20.812Z,7.80
2023-10-16T04:47:55.241Z,7.80
2023-10-16T04:53:14.049Z,7.70
2023-10-16T04:55:47.419Z,7.70
2023-10-16T04:58:25.089Z,7.70
2023-10-16T05:01:01.622Z,7.70
2023-10-16T05:03:45.453Z,7.60
2023-10-16T05:06:18.646Z,7.60
2023-10-16T05:08:59.176Z,7.60
2023-10-16T05:11:45.395Z,7.60
2023-10-16T05:14:23.910Z,7.60
2023-10-16T05:17:12.408Z,7.60
2023-10-16T05:19:39.434Z,7.50
2023-10-16T05:22:26.234Z,7.50
2023-10-16T05:25:11.603Z,7.50
2023-10-16T05:27:57.063Z,7.50
2023-10-16T05:30:47.182Z,7.50
2023-10-16T05:33:32.815Z,7.40
2023-10-16T05:36:18.410Z,7.40
2023-10-16T05:39:04.018Z,7.40
2023-10-16T05:41:49.440Z,7.40
2023-10-16T05:44:35.029Z,7.40
2023-10-16T05:47:20.444Z,7.40
2023-10-16T05:50:05.979Z,7.30
2023-10-16T05:52:51.495Z,7.30
2023-10-16T05:55:37.093Z,7.30
2023-10-16T05:58:22.676Z,7.30
2023-10-16T06:01:08.153Z,7.30
2023-10-16T06:03:53.692Z,7.30
2023-10-16T06:06:39.199Z,7.30
2023-10-16T06:09:24.690Z,7.20
2023-10-16T06:12:10.240Z,7.20
2023-10-16T06:14:37.021Z,7.20
2023-10-16T06:17:14.628Z,7.30
2023-10-16T06:19:44.143Z,7.20
2023-10-16T06:22:12.684Z,7.20
2023-10-16T06:24:46.099Z,7.20
2023-10-16T06:27:19.846Z,7.20
2023-10-16T06:29:55.111Z,7.30
2023-10-16T06:32:26.677Z,7.20
2023-10-16T06:35:08.525Z,7.30
2023-10-16T06:37:36.725Z,7.30
2023-10-16T06:40:06.289Z,7.30
2023-10-16T06:42:33.271Z,7.30
2023-10-16T06:45:09.256Z,7.30
2023-10-16T06:47:37.280Z,7.30
2023-10-16T06:50:29.312Z,7.30
2023-10-16T06:53:00.302Z,7.40
2023-10-16T06:55:27.429Z,7.40
2023-10-16T06:57:54.443Z,7.40
2023-10-16T07:00:24.561Z,7.40
2023-10-16T07:02:57.674Z,7.40
2023-10-16T07:05:26.017Z,7.40
2023-10-16T07:07:58.450Z,7.50
2023-10-16T07:10:27.036Z,7.50
2023-10-16T07:13:00.311Z,7.50
2023-10-16T07:15:30.208Z,7.50
2023-10-16T07:17:58.219Z,7.60
2023-10-16T07:20:31.401Z,7.60
2023-10-16T07:23:00.452Z,7.70
2023-10-16T07:25:38.948Z,7.80
2023-10-16T07:28:10.485Z,7.80
2023-10-16T07:30:44.257Z,7.90
2023-10-16T07:33:15.565Z,7.90
2023-10-16T07:35:46.043Z,7.90
2023-10-16T07:38:23.340Z,8.00
2023-10-16T07:40:58.377Z,8.00
2023-10-16T07:43:29.323Z,8.00
2023-10-16T07:46:14.832Z,8.10
2023-10-16T07:49:10.765Z,8.10
2023-10-16T07:51:39.633Z,8.10
2023-10-16T07:54:08.460Z,8.20
2023-10-16T07:56:36.750Z,8.20
2023-10-16T07:59:19.668Z,8.30
2023-10-16T08:01:50.603Z,8.20
2023-10-16T08:04:40.756Z,8.30
2023-10-16T08:07:11.598Z,8.30
2023-10-16T08:09:38.482Z,8.40
2023-10-16T08:12:19.817Z,8.40
2023-10-16T08:14:48.054Z,8.50
2023-10-16T08:17:18.692Z,8.60
2023-10-16T08:19:47.019Z,8.70
2023-10-16T08:22:17.294Z,8.80
2023-10-16T08:24:59.180Z,8.90
2023-10-16T08:27:39.454Z,9.00
2023-10-16T08:30:19.246Z,9.10
2023-10-16T08:32:50.469Z,9.20
2023-10-16T08:35:23.908Z,9.40
2023-10-16T08:37:59.988Z,9.50
2023-10-16T08:40:36.810Z,9.60
2023-10-16T08:43:09.460Z,9.70
2023-10-16T08:45:40.799Z,9.80
2023-10-16T08:48:09.202Z,10.00
2023-10-16T08:50:44.923Z,10.00
2023-10-16T08:53:33.909Z,10.10
2023-10-16T08:56:09.913Z,10.20
2023-10-16T08:58:41.939Z,10.30
2023-10-16T09:01:09.900Z,10.40
2023-10-16T09:03:45.596Z,10.50
2023-10-16T09:06:20.152Z,10.60
2023-10-16T09:08:46.906Z,10.70
2023-10-16T09:11:17.720Z,10.80
2023-10-16T09:13:50.502Z,10.90
2023-10-16T09:16:22.110Z,11.00
2023-10-16T09:18:49.291Z,11.00
2023-10-16T09:21:24.253Z,11.10
2023-10-16T09:23:59.528Z,11.20
2023-10-16T09:26:39.457Z,11.30
2023-10-16T09:29:14.490Z,11.30
2023-10-16T09:31:48.428Z,11.40
2023-10-16T09:34:19.974Z,11.50
2023-10-16T09:37:10.927Z,11.60
2023-10-16T09:39:50.661Z,11.70
2023-10-16T09:42:25.689Z,11.90
2023-10-16T09:45:08.495Z,12.00
2023-10-16T09:47:39.709Z,12.10
2023-10-16T09:50:18.174Z,12.30
2023-10-16T09:52:47.115Z,12.50
2023-10-16T09:55:14.298Z,12.60
2023-10-16T09:57:54.229Z,12.80
2023-10-16T10:00:34.479Z,12.90
2023-10-16T10:03:07.494Z,13.10
2023-10-16T10:05:42.905Z,13.30
2023-10-16T10:08:18.837Z,13.50
2023-10-16T10:11:22.291Z,13.60
2023-10-16T10:14:12.631Z,13.90
2023-10-16T10:16:46.744Z,14.10
2023-10-16T10:19:32.725Z,14.30
2023-10-16T10:22:18.554Z,14.50
2023-10-16T10:24:52.523Z,14.70
2023-10-16T10:27:19.529Z,14.90
2023-10-16T10:29:49.856Z,15.00
2023-10-16T10:32:17.027Z,15.10
2023-10-16T10:34:45.458Z,15.20
2023-10-16T10:37:46.301Z,15.30
2023-10-16T10:40:23.286Z,15.30
2023-10-16T10:42:59.073Z,15.30
2023-10-16T10:45:36.912Z,15.70
2023-10-16T10:48:08.083Z,15.70
2023-10-16T10:50:35.446Z,15.80
2023-10-16T10:53:07.371Z,16.00
2023-10-16T10:55:34.165Z,16.10
2023-10-16T10:58:03.179Z,16.20
2023-10-16T11:00:29.969Z,16.30
2023-10-16T11:03:02.963Z,16.50
2023-10-16T11:05:32.373Z,16.60
2023-10-16T11:08:10.556Z,16.70
2023-10-16T11:10:42.866Z,16.80
2023-10-16T11:13:10.839Z,16.90
2023-10-16T11:15:38.192Z,17.00
2023-10-16T11:18:12.689Z,17.10
2023-10-16T11:20:40.920Z,17.20
2023-10-16T11:23:18.017Z,17.30
2023-10-16T11:25:47.387Z,17.40
2023-10-16T11:28:21.427Z,17.40
2023-10-16T11:30:51.146Z,17.50
2023-10-16T11:33:57.668Z,17.50
2023-10-16T11:36:24.863Z,17.60
2023-10-16T11:38:54.434Z,17.60
2023-10-16T11:41:22.112Z,17.50
2023-10-16T11:43:53.937Z,17.60
2023-10-16T11:46:29.752Z,17.60
2023-10-16T11:49:33.472Z,17.60
2023-10-16T11:52:09.843Z,17.70
2023-10-16T11:54:41.826Z,17.80
2023-10-16T11:57:14.249Z,17.80
2023-10-16T11:59:41.839Z,17.90
2023-10-16T12:02:15.878Z,17.90
2023-10-16T12:04:43.930Z,17.90
2023-10-16T12:07:15.602Z,18.00
2023-10-16T12:09:49.650Z,18.00
2023-10-16T12:12:25.781Z,18.10
2023-10-16T12:14:54.357Z,18.10
2023-10-16T12:17:21.906Z,18.10
2023-10-16T12:19:49.504Z,18.20
2023-10-16T12:22:22.565Z,18.20
2023-10-16T12:24:50.444Z,18.30
2023-10-16T12:27:17.598Z,18.30
2023-10-16T12:29:47.860Z,18.40
2023-10-16T12:32:15.050Z,18.30
2023-10-16T12:34:42.672Z,18.30
2023-10-16T12:37:10.895Z,18.40
2023-10-16T12:39:47.692Z,18.50
2023-10-16T12:42:15.486Z,18.40
2023-10-16T12:44:42.722Z,18.40
2023-10-16T12:47:09.759Z,18.40
2023-10-16T12:49:36.674Z,18.50
2023-10-16T12:52:03.652Z,18.40
2023-10-16T12:54:30.457Z,18.40
2023-10-16T12:56:58.826Z,18.40
2023-10-16T12:59:28.575Z,18.50
2023-10-16T13:01:55.423Z,18.60
2023-10-16T13:04:26.068Z,18.70
2023-10-16T13:06:53.182Z,18.80
2023-10-16T13:09:20.981Z,18.90
2023-10-16T13:11:47.945Z,18.90
2023-10-16T13:14:14.852Z,18.80
2023-10-16T13:16:42.659Z,18.80
2023-10-16T13:19:12.348Z,18.80
2023-10-16T13:21:39.533Z,18.80
2023-10-16T13:24:12.281Z,18.80
2023-10-16T13:26:42.433Z,18.80
2023-10-16T13:29:11.877Z,18.70
2023-10-16T13:31:43.019Z,18.70
2023-10-16T13:34:14.721Z,18.70
2023-10-16T13:36:57.876Z,18.80
2023-10-16T13:39:27.951Z,18.80
2023-10-16T13:41:56.909Z,18.70
2023-10-16T13:44:26.215Z,18.70
2023-10-16T13:46:54.643Z,18.70
2023-10-16T13:49:25.125Z,18.70
2023-10-16T13:51:55.017Z,18.60
2023-10-16T13:54:22.048Z,18.70
2023-10-16T13:56:49.587Z,18.80
2023-10-16T13:59:19.378Z,18.70
2023-10-16T14:01:47.450Z,18.60
2023-10-16T14:04:15.985Z,18.50
2023-10-16T14:06:45.333Z,18.50
2023-10-16T14:09:12.656Z,18.40
2023-10-16T14:11:48.836Z,18.20
2023-10-16T14:14:20.180Z,18.10
2023-10-16T14:16:52.340Z,18.10
2023-10-16T14:19:23.688Z,18.00
2023-10-16T14:21:53.994Z,17.80
2023-10-16T14:24:23.495Z,17.70
2023-10-16T14:26:51.730Z,17.60
2023-10-16T14:29:21.255Z,17.40
2023-10-16T14:31:52.909Z,17.30
2023-10-16T14:34:26.908Z,17.20
2023-10-16T14:36:55.561Z,17.10
2023-10-16T14:39:30.004Z,17.00
2023-10-16T14:41:58.589Z,16.80
2023-10-16T14:44:25.824Z,16.70
2023-10-16T14:46:52.874Z,16.60
2023-10-16T14:49:21.055Z,16.60
2023-10-16T14:51:48.167Z,16.40
2023-10-16T14:54:15.857Z,16.30
2023-10-16T14:56:45.485Z,16.20
2023-10-16T14:59:23.807Z,16.20
2023-10-16T15:01:52.105Z,16.10
2023-10-16T15:04:21.259Z,16.00
2023-10-16T15:06:49.150Z,16.00
2023-10-16T15:09:18.688Z,15.90
2023-10-16T15:11:50.792Z,15.80
2023-10-16T15:14:17.929Z,15.70
2023-10-16T15:16:45.038Z,15.70
2023-10-16T15:19:12.486Z,15.70
2023-10-16T15:21:41.282Z,15.60
2023-10-16T15:24:12.316Z,15.60
2023-10-16T15:26:39.270Z,15.60
2023-10-16T15:29:06.224Z,15.60
2023-10-16T15:31:33.596Z,15.60
2023-10-16T15:34:00.887Z,15.50
2023-10-16T15:36:27.897Z,15.40
2023-10-16T15:38:55.027Z,15.40
2023-10-16T15:41:24.199Z,15.30
2023-10-16T15:43:54.482Z,15.30
2023-10-16T15:46:32.253Z,15.30
2023-10-16T15:49:00.533Z,15.20
2023-10-16T15:51:31.767Z,15.20
2023-10-16T15:53:59.850Z,15.20
2023-10-16T15:56:28.015Z,15.20
2023-10-16T15:58:56.962Z,15.10
2023-10-16T16:01:26.784Z,15.10
2023-10-16T16:04:01.437Z,15.10
2023-10-16T16:06:32.389Z,15.00
2023-10-16T16:09:01.160Z,15.00
2023-10-16T16:11:29.628Z,14.90
2023-10-16T16:13:57.896Z,14.90
2023-10-16T16:16:24.847Z,14.90
2023-10-16T16:18:51.817Z,14.90
2023-10-16T16:21:18.690Z,14.80
2023-10-16T16:23:45.429Z,14.80
2023-10-16T16:26:12.321Z,14.80
2023-10-16T16:28:40.427Z,14.80
2023-10-16T16:31:08.705Z,14.70
2023-10-16T16:33:35.829Z,14.70
2023-10-16T16:36:02.903Z,14.60
2023-10-16T16:38:29.699Z,14.60
2023-10-16T16:40:56.524Z,14.60
2023-10-16T16:43:23.508Z,14.50
2023-10-16T16:45:51.417Z,14.50
2023-10-16T16:48:18.293Z,14.40
2023-10-16T16:50:46.952Z,14.40
2023-10-16T16:53:13.833Z,14.40
2023-10-16T16:55:40.681Z,14.30
2023-10-16T16:58:07.514Z,14.30
2023-10-16T17:00:34.582Z,14.20
2023-10-16T17:03:01.783Z,14.20
2023-10-16T17:05:28.669Z,14.20
2023-10-16T17:07:57.686Z,14.10
2023-10-16T17:10:29.331Z,14.10
2023-10-16T17:12:56.520Z,14.00
2023-10-16T17:15:27.293Z,14.00
2023-10-16T17:17:55.323Z,14.00
2023-10-16T17:20:22.985Z,14.00
2023-10-16T17:25:23.146Z,13.90
2023-10-16T17:27:50.633Z,13.90
2023-10-16T17:30:18.565Z,13.90
2023-10-16T17:32:45.958Z,13.80
2023-10-16T17:35:12.979Z,13.80
2023-10-16T17:37:41.228Z,13.70
2023-10-16T17:40:11.240Z,13.70
2023-10-16T17:42:38.416Z,13.70
2023-10-16T17:45:06.634Z,13.60
2023-10-16T17:47:35.100Z,13.60
2023-10-16T17:50:02.726Z,13.50
2023-10-16T17:52:35.263Z,13.50
2023-10-16T17:55:04.677Z,13.50
2023-10-16T17:57:32.720Z,13.40
2023-10-16T17:59:59.621Z,13.40
2023-10-16T18:02:26.794Z,13.40
2023-10-16T18:04:54.053Z,13.40
2023-10-16T18:07:21.069Z,13.30
2023-10-16T18:09:47.890Z,13.30
2023-10-16T18:12:21.080Z,13.30
2023-10-16T18:14:48.773Z,13.30
2023-10-16T18:17:18.366Z,13.20
2023-10-16T18:19:47.441Z,13.10
2023-10-16T18:22:15.692Z,13.10
2023-10-16T18:24:43.214Z,13.10
2023-10-16T18:27:14.956Z,13.10
2023-10-16T18:29:44.578Z,13.10
2023-10-16T18:32:11.629Z,13.00
2023-10-16T18:34:39.426Z,13.00
2023-10-16T18:37:06.539Z,13.00
2023-10-16T18:39:39.672Z,12.90
2023-10-16T18:42:11.152Z,12.90
2023-10-16T18:44:43.191Z,12.90
2023-10-16T18:47:13.945Z,12.90
2023-10-16T18:49:41.755Z,12.80
2023-10-16T18:52:10.178Z,12.80
2023-10-16T18:54:37.608Z,12.80
2023-10-16T18:57:04.812Z,12.80
2023-10-16T18:59:32.807Z,12.70
2023-10-16T19:02:00.459Z,12.70
2023-10-16T19:04:27.848Z,12.70
2023-10-16T19:06:54.915Z,12.60
2023-10-16T19:09:22.056Z,12.60
2023-10-16T19:11:49.083Z,12.60
2023-10-16T19:14:16.039Z,12.60
2023-10-16T19:16:43.043Z,12.50
2023-10-16T19:19:10.237Z,12.50
2023-10-16T19:21:39.404Z,12.50
2023-10-16T19:24:09.824Z,12.40
2023-10-16T19:26:38.411Z,12.40
2023-10-16T19:29:05.621Z,12.40
2023-10-16T19:31:33.495Z,12.40
2023-10-16T19:34:01.096Z,12.30
2023-10-16T19:36:30.381Z,12.30
2023-10-16T19:38:58.804Z,12.40
2023-10-16T19:41:34.585Z,12.30
2023-10-16T19:44:02.001Z,12.30
2023-10-16T19:46:32.228Z,12.30
2023-10-16T19:48:59.168Z,12.30
2023-10-16T19:51:26.066Z,12.30
2023-10-16T19:53:59.112Z,12.20
2023-10-16T19:56:26.318Z,12.20
2023-10-16T19:58:53.848Z,12.20
2023-10-16T20:01:23.791Z,12.20
2023-10-16T20:03:51.279Z,12.20
2023-10-16T20:06:19.925Z,12.20
2023-10-16T20:08:50.548Z,12.20
2023-10-16T20:11:18.200Z,12.20
2023-10-16T20:13:45.146Z,12.20
2023-10-16T20:16:15.063Z,12.20
2023-10-16T20:18:43.052Z,12.20
2023-10-16T20:21:18.867Z,12.20
2023-10-16T20:23:47.670Z,12.20
2023-10-16T20:26:19.929Z,12.10
2023-10-16T20:28:50.910Z,12.10
2023-10-16T20:31:19.782Z,12.10
2023-10-16T20:33:49.964Z,12.10
2023-10-16T20:36:18.402Z,12.10
2023-10-16T20:38:45.956Z,12.00
2023-10-16T20:41:14.077Z,12.00
2023-10-16T20:43:41.286Z,12.00
2023-10-16T20:46:08.242Z,11.90
2023-10-16T20:48:37.164Z,11.90
2023-10-16T20:51:08.431Z,11.90
2023-10-16T20:53:35.333Z,11.90
2023-10-16T20:56:02.160Z,11.80
2023-10-16T20:58:29.034Z,11.80
2023-10-16T21:00:56.847Z,11.80
2023-10-16T21:03:24.897Z,11.70
2023-10-16T21:05:52.225Z,11.70
2023-10-16T21:08:20.352Z,11.60
2023-10-16T21:10:47.754Z,11.60
2023-10-16T21:13:15.021Z,11.60
2023-10-16T21:15:46.064Z,11.50
2023-10-16T21:18:13.164Z,11.50
2023-10-16T21:20:40.391Z,11.40
2023-10-16T21:23:07.223Z,11.40
2023-10-16T21:25:34.555Z,11.40
2023-10-16T21:28:02.528Z,11.30
2023-10-16T21:30:29.810Z,11.30
2023-10-16T21:32:57.807Z,11.30
2023-10-16T21:35:28.003Z,11.20
2023-10-16T21:37:54.955Z,11.20
2023-10-16T21:40:24.862Z,11.20
2023-10-16T21:42:52.923Z,11.10
2023-10-16T21:45:20.488Z,11.10
2023-10-16T21:47:47.591Z,11.10
2023-10-16T21:50:14.662Z,11.10
2023-10-16T21:52:41.515Z,11.00
2023-10-16T21:55:08.839Z,11.00
2023-10-16T21:57:36.138Z,11.00
2023-10-16T22:00:13.570Z,10.90
2023-10-16T22:02:41.638Z,10.90
2023-10-16T22:05:13.057Z,10.90
2023-10-16T22:07:40.598Z,10.90
2023-10-16T22:10:11.096Z,10.80
2023-10-16T22:12:38.674Z,10.80
2023-10-16T22:15:11.356Z,10.80
2023-10-16T22:17:38.985Z,10.80
2023-10-16T22:20:12.145Z,10.80
2023-10-16T22:22:39.055Z,10.80
2023-10-16T22:25:06.115Z,10.80
2023-10-16T22:27:33.726Z,10.80
2023-10-16T22:30:01.357Z,10.70
2023-10-16T22:32:28.438Z,10.80
2023-10-16T22:34:55.330Z,10.70
2023-10-16T22:37:22.217Z,10.70
2023-10-16T22:39:49.091Z,10.70
2023-10-16T22:42:16.974Z,10.70
2023-10-16T22:44:43.836Z,10.70
2023-10-16T22:47:11.064Z,10.60
2023-10-16T22:49:37.988Z,10.60
2023-10-16T22:52:05.010Z,10.60
2023-10-16T22:54:32.780Z,10.60
2023-10-16T22:57:01.054Z,10.50
2023-10-16T22:59:27.900Z,10.50
2023-10-16T23:01:54.847Z,10.50
2023-10-16T23:04:21.734Z,10.40
2023-10-16T23:06:51.438Z,10.40
2023-10-16T23:09:30.484Z,10.40
2023-10-16T23:12:24.202Z,10.40
2023-10-16T23:14:51.358Z,10.30
2023-10-16T23:17:18.671Z,10.30
2023-10-16T23:19:46.995Z,10.30
2023-10-16T23:22:13.800Z,10.20
2023-10-16T23:24:40.609Z,10.20
2023-10-16T23:27:08.190Z,10.20
2023-10-16T23:29:35.167Z,10.10
2023-10-16T23:32:04.363Z,10.10
2023-10-16T23:34:31.918Z,10.10
2023-10-16T23:37:04.954Z,10.00
2023-10-16T23:39:31.977Z,10.00
2023-10-16T23:42:14.051Z,10.00
2023-10-16T23:44:42.260Z,10.00
2023-10-16T23:47:18.007Z,10.00
2023-10-16T23:49:48.557Z,9.90
2023-10-16T23:52:24.747Z,9.90
2023-10-16T23:55:07.916Z,9.90
2023-10-16T23:57:49.651Z,9.90
